createdAt,value
2017-09-29T00:00:57.842Z,37.10
2017-09-29T00:01:57.867Z,36.00
2017-09-29T00:02:57.876Z,47.20
2017-09-29T00:03:57.900Z,39.60
2017-09-29T00:04:57.919Z,38.80
2017-09-29T00:05:57.943Z,39.90
2017-09-29T00:06:57.963Z,39.40
2017-09-29T00:07:57.980Z,34.60
2017-09-29T00:08:58.000Z,35.90
2017-09-29T00:09:58.030Z,36.00
2017-09-29T00:10:58.042Z,40.20
2017-09-29T00:11:58.062Z,42.60
2017-09-29T00:12:58.089Z,35.00
2017-09-29T00:13:58.101Z,36.00
2017-09-29T00:14:58.121Z,35.80
2017-09-29T00:15:58.148Z,32.20
2017-09-29T00:16:58.169Z,32.00
2017-09-29T00:17:58.182Z,30.30
2017-09-29T00:18:58.206Z,35.00
2017-09-29T00:19:58.221Z,36.10
2017-09-29T00:20:58.241Z,39.50
2017-09-29T00:21:58.262Z,37.70
2017-09-29T00:22:58.282Z,40.20
2017-09-29T00:23:58.318Z,40.60
2017-09-29T00:24:58.323Z,31.30
2017-09-29T00:25:58.343Z,31.70
2017-09-29T00:26:58.363Z,35.60
2017-09-29T00:27:58.384Z,37.80
2017-09-29T00:28:58.407Z,40.30
2017-09-29T00:29:58.423Z,40.00
2017-09-29T00:30:58.442Z,36.60
2017-09-29T00:31:58.463Z,38.70
2017-09-29T00:32:58.484Z,38.90
2017-09-29T00:33:58.505Z,33.70
2017-09-29T00:34:58.527Z,38.90
2017-09-29T00:35:58.546Z,37.10
2017-09-29T00:36:58.563Z,39.60
2017-09-29T00:37:58.583Z,38.40
2017-09-29T00:38:58.604Z,43.20
2017-09-29T00:39:58.627Z,39.70
2017-09-29T00:40:58.643Z,42.70
2017-09-29T00:41:58.664Z,41.70
2017-09-29T00:42:58.686Z,35.40
2017-09-29T00:43:58.706Z,32.80
2017-09-29T00:44:58.723Z,36.10
2017-09-29T00:45:58.746Z,34.60
2017-09-29T00:46:58.785Z,35.40
2017-09-29T00:47:58.783Z,33.50
2017-09-29T00:48:58.806Z,29.70
2017-09-29T00:49:58.824Z,35.80
2017-09-29T00:50:58.844Z,42.90
2017-09-29T00:51:58.864Z,33.90
2017-09-29T00:52:58.885Z,34.10
2017-09-29T00:53:58.907Z,34.10
2017-09-29T00:54:58.924Z,33.50
2017-09-29T00:55:58.949Z,35.40
2017-09-29T00:56:58.964Z,35.90
2017-09-29T00:57:58.984Z,34.90
2017-09-29T00:58:59.003Z,37.80
2017-09-29T00:59:59.024Z,34.10
2017-09-29T01:00:59.043Z,33.00
2017-09-29T01:01:59.065Z,35.50
2017-09-29T01:02:59.084Z,34.50
2017-09-29T01:03:59.106Z,38.80
2017-09-29T01:04:59.125Z,35.60
2017-09-29T01:05:59.146Z,32.10
2017-09-29T01:06:59.166Z,34.70
2017-09-29T01:07:59.182Z,31.90
2017-09-29T01:08:59.203Z,31.50
2017-09-29T01:09:59.230Z,31.00
2017-09-29T01:10:59.246Z,40.10
2017-09-29T01:11:59.266Z,33.40
2017-09-29T01:12:59.282Z,37.20
2017-09-29T01:13:59.305Z,38.70
2017-09-29T01:14:59.324Z,36.20
2017-09-29T01:15:59.345Z,36.40
2017-09-29T01:16:59.364Z,33.30
2017-09-29T01:17:59.392Z,32.30
2017-09-29T01:18:59.404Z,32.10
2017-09-29T01:19:59.425Z,33.90
2017-09-29T01:20:59.446Z,32.60
2017-09-29T01:21:59.464Z,36.40
2017-09-29T01:22:59.484Z,39.60
2017-09-29T01:23:59.505Z,35.10
2017-09-29T01:24:59.525Z,36.80
2017-09-29T01:25:59.543Z,39.50
2017-09-29T01:26:59.568Z,36.10
2017-09-29T01:27:59.583Z,34.50
2017-09-29T01:28:59.605Z,34.80
2017-09-29T01:29:59.628Z,34.40
2017-09-29T01:30:59.650Z,36.00
2017-09-29T01:31:59.676Z,32.40
2017-09-29T01:32:59.687Z,32.20
2017-09-29T01:33:59.718Z,39.30
2017-09-29T01:34:59.728Z,39.00
2017-09-29T01:35:59.745Z,40.10
2017-09-29T01:36:59.765Z,38.20
2017-09-29T01:37:59.786Z,35.70
2017-09-29T01:38:59.808Z,38.00
2017-09-29T01:39:59.828Z,32.10
2017-09-29T01:40:59.846Z,35.10
2017-09-29T01:41:59.942Z,33.40
2017-09-29T01:42:59.888Z,39.00
2017-09-29T01:43:59.908Z,38.20
2017-09-29T01:44:59.926Z,34.50
2017-09-29T01:45:59.949Z,37.60
2017-09-29T01:46:59.968Z,40.80
2017-09-29T01:47:59.992Z,41.90
2017-09-29T01:49:00.015Z,38.30
2017-09-29T01:50:00.029Z,37.70
2017-09-29T01:51:00.049Z,38.80
2017-09-29T01:52:00.069Z,38.30
2017-09-29T01:53:00.090Z,34.40
2017-09-29T01:54:00.109Z,34.50
2017-09-29T01:55:00.132Z,34.20
2017-09-29T01:56:00.151Z,33.20
2017-09-29T01:57:00.169Z,34.40
2017-09-29T01:58:00.193Z,35.90
2017-09-29T01:59:00.213Z,38.00
2017-09-29T02:00:00.230Z,34.90
2017-09-29T02:01:00.253Z,37.00
2017-09-29T02:02:00.272Z,40.60
2017-09-29T02:03:00.294Z,33.80
2017-09-29T02:04:00.314Z,36.90
2017-09-29T02:05:00.337Z,37.90
2017-09-29T02:06:00.355Z,32.10
2017-09-29T02:07:00.374Z,37.20
2017-09-29T02:08:00.395Z,37.20
2017-09-29T02:09:00.418Z,31.90
2017-09-29T02:10:00.434Z,33.20
2017-09-29T02:11:00.452Z,35.30
2017-09-29T02:12:00.472Z,30.60
2017-09-29T02:13:00.492Z,38.20
2017-09-29T02:14:00.514Z,34.50
2017-09-29T02:15:00.535Z,33.10
2017-09-29T02:16:00.557Z,35.00
2017-09-29T02:17:00.577Z,38.10
2017-09-29T02:18:00.595Z,35.80
2017-09-29T02:19:00.614Z,35.40
2017-09-29T02:20:00.633Z,33.70
2017-09-29T02:21:00.665Z,39.40
2017-09-29T02:22:00.677Z,35.50
2017-09-29T02:23:00.698Z,35.40
2017-09-29T02:24:00.717Z,38.30
2017-09-29T02:25:00.735Z,36.70
2017-09-29T02:26:00.756Z,37.60
2017-09-29T02:27:00.778Z,36.00
2017-09-29T02:28:00.801Z,34.40
2017-09-29T02:29:00.820Z,34.80
2017-09-29T02:30:00.837Z,32.40
2017-09-29T02:31:00.860Z,41.50
2017-09-29T02:32:00.879Z,37.10
2017-09-29T02:33:00.903Z,39.90
2017-09-29T02:34:00.927Z,38.00
2017-09-29T02:35:00.939Z,37.50
2017-09-29T02:36:00.961Z,39.80
2017-09-29T02:37:00.980Z,34.40
2017-09-29T02:38:01.001Z,39.10
2017-09-29T02:39:01.022Z,39.80
2017-09-29T02:40:01.042Z,37.10
2017-09-29T02:41:01.065Z,39.80
2017-09-29T02:42:01.083Z,35.60
2017-09-29T02:43:01.103Z,36.30
2017-09-29T02:44:01.121Z,36.00
2017-09-29T02:45:01.143Z,35.50
2017-09-29T02:46:01.165Z,37.70
2017-09-29T02:47:01.183Z,35.60
2017-09-29T02:48:01.205Z,36.40
2017-09-29T02:49:01.222Z,36.10
2017-09-29T02:50:01.249Z,35.30
2017-09-29T02:51:01.265Z,34.70
2017-09-29T02:52:01.284Z,35.50
2017-09-29T02:53:01.317Z,33.10
2017-09-29T02:54:01.328Z,34.60
2017-09-29T02:55:01.347Z,37.80
2017-09-29T02:56:01.367Z,35.30
2017-09-29T02:57:01.388Z,35.00
2017-09-29T02:58:01.406Z,38.70
2017-09-29T02:59:01.430Z,35.50
2017-09-29T03:00:01.446Z,35.10
2017-09-29T03:01:01.474Z,35.90
2017-09-29T03:02:01.486Z,39.00
2017-09-29T03:03:01.511Z,31.60
2017-09-29T03:04:01.531Z,34.20
2017-09-29T03:05:01.552Z,41.20
2017-09-29T03:06:01.569Z,34.10
2017-09-29T03:07:01.592Z,35.40
2017-09-29T03:08:01.611Z,36.50
2017-09-29T03:09:01.631Z,40.40
2017-09-29T03:10:01.651Z,40.40
2017-09-29T03:11:01.672Z,38.90
2017-09-29T03:12:01.688Z,38.20
2017-09-29T03:13:01.711Z,40.30
2017-09-29T03:14:01.732Z,39.50
2017-09-29T03:15:01.751Z,38.00
2017-09-29T03:16:01.772Z,39.70
2017-09-29T03:17:01.791Z,40.90
2017-09-29T03:18:01.810Z,33.20
2017-09-29T03:19:01.832Z,46.40
2017-09-29T03:20:01.853Z,45.20
2017-09-29T03:21:01.871Z,48.70
2017-09-29T03:22:01.893Z,40.90
2017-09-29T03:23:01.914Z,41.80
2017-09-29T03:24:01.934Z,42.10
2017-09-29T03:25:01.952Z,42.40
2017-09-29T03:26:01.973Z,46.40
2017-09-29T03:27:01.994Z,39.30
2017-09-29T03:28:02.014Z,40.10
2017-09-29T03:29:02.034Z,44.70
2017-09-29T03:30:02.057Z,45.30
2017-09-29T03:31:02.077Z,45.00
2017-09-29T03:32:02.093Z,47.00
2017-09-29T03:33:02.146Z,43.10
2017-09-29T03:34:02.152Z,42.50
2017-09-29T03:35:02.159Z,35.80
2017-09-29T03:36:02.178Z,39.60
2017-09-29T03:37:02.194Z,39.60
2017-09-29T03:38:02.224Z,32.70
2017-09-29T03:39:02.237Z,39.70
2017-09-29T03:40:02.254Z,38.20
2017-09-29T03:41:02.285Z,36.40
2017-09-29T03:42:02.295Z,39.70
2017-09-29T03:43:02.322Z,33.90
2017-09-29T03:44:02.334Z,36.50
2017-09-29T03:45:02.352Z,35.10
2017-09-29T03:46:02.380Z,38.70
2017-09-29T03:47:02.394Z,35.50
2017-09-29T03:48:02.412Z,43.60
2017-09-29T03:49:02.436Z,41.70
2017-09-29T03:50:02.453Z,43.70
2017-09-29T03:51:02.474Z,44.60
2017-09-29T03:52:02.494Z,44.60
2017-09-29T03:53:02.513Z,41.60
2017-09-29T03:54:02.538Z,42.90
2017-09-29T03:55:02.571Z,43.20
2017-09-29T03:56:02.573Z,44.80
2017-09-29T03:57:02.591Z,40.90
2017-09-29T03:58:02.614Z,43.60
2017-09-29T03:59:02.640Z,40.00
2017-09-29T04:00:02.653Z,46.00
2017-09-29T04:01:02.673Z,45.00
2017-09-29T04:02:02.701Z,49.40
2017-09-29T04:03:02.717Z,51.70
2017-09-29T04:04:02.731Z,51.40
2017-09-29T04:05:02.761Z,49.80
2017-09-29T04:06:02.774Z,43.00
2017-09-29T04:07:02.793Z,45.70
2017-09-29T04:08:02.811Z,46.40
2017-09-29T04:09:02.832Z,44.40
2017-09-29T04:10:02.851Z,39.40
2017-09-29T04:11:02.870Z,39.70
2017-09-29T04:12:02.890Z,42.90
2017-09-29T04:13:02.910Z,39.40
2017-09-29T04:14:02.934Z,42.10
2017-09-29T04:15:02.952Z,45.20
2017-09-29T04:16:02.970Z,43.10
2017-09-29T04:17:02.994Z,42.80
2017-09-29T04:18:03.011Z,49.70
2017-09-29T04:19:03.032Z,43.80
2017-09-29T04:20:03.053Z,41.60
2017-09-29T04:21:03.071Z,41.10
2017-09-29T04:22:03.092Z,41.60
2017-09-29T04:23:03.109Z,38.10
2017-09-29T04:24:03.135Z,43.00
2017-09-29T04:25:03.152Z,38.30
2017-09-29T04:26:03.168Z,49.20
2017-09-29T04:27:03.192Z,41.70
2017-09-29T04:28:03.208Z,35.50
2017-09-29T04:29:03.231Z,45.50
2017-09-29T04:30:03.252Z,49.70
2017-09-29T04:31:03.270Z,52.40
2017-09-29T04:32:03.405Z,54.60
2017-09-29T04:33:03.308Z,52.30
2017-09-29T04:34:03.331Z,58.50
2017-09-29T04:35:03.352Z,60.20
2017-09-29T04:36:03.367Z,62.60
2017-09-29T04:37:03.387Z,58.90
2017-09-29T04:38:03.409Z,65.60
2017-09-29T04:39:03.431Z,62.80
2017-09-29T04:40:03.449Z,70.60
2017-09-29T04:41:03.466Z,123.00
2017-09-29T04:42:03.487Z,163.50
2017-09-29T04:43:03.514Z,80.60
2017-09-29T04:44:03.528Z,92.00
2017-09-29T04:45:03.553Z,79.50
2017-09-29T04:46:03.567Z,89.10
2017-09-29T04:47:03.589Z,78.20
2017-09-29T04:48:03.617Z,97.20
2017-09-29T04:49:03.628Z,248.40
2017-09-29T04:50:03.647Z,363.40
2017-09-29T04:51:03.674Z,253.70
2017-09-29T04:52:03.692Z,467.20
2017-09-29T04:53:03.707Z,578.70
2017-09-29T04:54:03.728Z,631.60
2017-09-29T04:55:03.752Z,555.10
2017-09-29T04:56:03.771Z,550.90
2017-09-29T04:57:03.787Z,597.10
2017-09-29T04:58:03.809Z,706.90
2017-09-29T04:59:03.830Z,531.20
2017-09-29T05:00:03.844Z,687.90
2017-09-29T05:01:03.867Z,814.30
2017-09-29T05:02:03.887Z,742.80
2017-09-29T05:03:03.910Z,670.00
2017-09-29T05:04:03.927Z,797.50
2017-09-29T05:05:03.945Z,629.10
2017-09-29T05:06:03.967Z,701.50
2017-09-29T05:07:03.987Z,563.30
2017-09-29T05:08:04.010Z,732.30
2017-09-29T05:09:04.034Z,674.30
2017-09-29T05:10:04.046Z,889.20
2017-09-29T05:11:04.069Z,1033.60
2017-09-29T05:12:04.089Z,882.40
2017-09-29T05:13:04.105Z,941.70
2017-09-29T05:14:04.127Z,852.30
2017-09-29T05:15:04.147Z,581.80
2017-09-29T05:16:04.167Z,703.30
2017-09-29T05:17:04.187Z,703.50
2017-09-29T05:18:04.205Z,540.00
2017-09-29T05:19:04.227Z,671.40
2017-09-29T05:20:04.249Z,497.10
2017-09-29T05:21:04.267Z,484.10
2017-09-29T05:22:04.297Z,566.20
2017-09-29T05:23:04.307Z,440.90
2017-09-29T05:24:04.331Z,347.50
2017-09-29T05:25:04.344Z,442.50
2017-09-29T05:26:04.371Z,366.70
2017-09-29T05:27:04.387Z,367.80
2017-09-29T05:28:04.405Z,558.90
2017-09-29T05:29:04.437Z,402.50
2017-09-29T05:30:04.445Z,600.20
2017-09-29T05:31:04.472Z,511.90
2017-09-29T05:32:04.485Z,440.60
2017-09-29T05:33:04.524Z,472.60
2017-09-29T05:34:04.528Z,480.80
2017-09-29T05:35:04.548Z,450.80
2017-09-29T05:36:04.567Z,406.80
2017-09-29T05:37:04.586Z,465.10
2017-09-29T05:38:04.611Z,541.00
2017-09-29T05:39:04.627Z,513.60
2017-09-29T05:40:04.650Z,440.10
2017-09-29T05:41:04.669Z,349.90
2017-09-29T05:42:04.691Z,282.00
2017-09-29T05:43:04.708Z,315.60
2017-09-29T05:44:04.728Z,238.40
2017-09-29T05:45:04.748Z,281.80
2017-09-29T05:46:04.769Z,245.20
2017-09-29T05:47:04.789Z,217.00
2017-09-29T05:48:04.808Z,249.80
2017-09-29T05:49:04.828Z,204.80
2017-09-29T05:50:04.850Z,199.30
2017-09-29T05:51:04.867Z,290.50
2017-09-29T05:52:04.885Z,286.50
2017-09-29T05:53:04.907Z,264.60
2017-09-29T05:54:04.928Z,230.30
2017-09-29T05:55:04.948Z,525.10
2017-09-29T05:56:04.966Z,446.50
2017-09-29T05:57:04.986Z,460.40
2017-09-29T05:58:05.008Z,550.90
2017-09-29T05:59:05.028Z,320.60
2017-09-29T06:00:05.049Z,303.60
2017-09-29T06:01:05.066Z,247.20
2017-09-29T06:02:05.086Z,502.30
2017-09-29T06:03:05.109Z,517.00
2017-09-29T06:04:05.128Z,344.40
2017-09-29T06:05:05.147Z,402.10
2017-09-29T06:06:05.165Z,396.60
2017-09-29T06:07:05.187Z,481.60
2017-09-29T06:08:05.204Z,464.60
2017-09-29T06:09:05.228Z,794.30
2017-09-29T06:10:05.249Z,467.90
2017-09-29T06:11:05.267Z,402.10
2017-09-29T06:12:05.286Z,415.40
2017-09-29T06:13:05.308Z,430.50
2017-09-29T06:14:05.327Z,467.20
2017-09-29T06:15:05.352Z,353.20
2017-09-29T06:16:05.366Z,383.20
2017-09-29T06:17:05.390Z,359.90
2017-09-29T06:18:05.410Z,336.60
2017-09-29T06:19:05.429Z,542.30
2017-09-29T06:20:05.449Z,412.10
2017-09-29T06:21:05.466Z,324.80
2017-09-29T06:22:05.508Z,393.20
2017-09-29T06:23:05.513Z,402.80
2017-09-29T06:24:05.536Z,315.30
2017-09-29T06:25:05.550Z,315.80
2017-09-29T06:26:05.572Z,397.60
2017-09-29T06:27:05.590Z,417.50
2017-09-29T06:28:05.609Z,254.80
2017-09-29T06:29:05.630Z,287.60
2017-09-29T06:30:05.650Z,287.10
2017-09-29T06:31:05.674Z,261.30
2017-09-29T06:32:05.695Z,293.90
2017-09-29T06:33:05.709Z,298.80
2017-09-29T06:34:05.730Z,414.40
2017-09-29T06:35:05.753Z,390.20
2017-09-29T06:36:05.773Z,428.80
2017-09-29T06:37:05.796Z,483.40
2017-09-29T06:38:05.817Z,438.00
2017-09-29T06:39:05.832Z,370.40
2017-09-29T06:40:05.858Z,423.00
2017-09-29T06:41:05.873Z,394.50
2017-09-29T06:42:05.900Z,433.00
2017-09-29T06:43:05.921Z,376.70
2017-09-29T06:44:05.937Z,399.90
2017-09-29T06:45:05.957Z,472.30
2017-09-29T06:46:05.977Z,521.90
2017-09-29T06:47:06.000Z,394.00
2017-09-29T06:48:06.020Z,362.60
2017-09-29T06:49:06.041Z,373.90
2017-09-29T06:50:06.067Z,440.00
2017-09-29T06:51:06.082Z,454.70
2017-09-29T06:52:06.103Z,460.80
2017-09-29T06:53:06.131Z,342.80
2017-09-29T06:54:06.148Z,297.30
2017-09-29T06:55:06.166Z,393.10
2017-09-29T06:56:06.192Z,369.10
2017-09-29T06:57:06.217Z,427.10
2017-09-29T06:58:06.227Z,367.70
2017-09-29T06:59:06.250Z,450.20
2017-09-29T07:00:06.270Z,341.40
2017-09-29T07:01:06.294Z,389.70
2017-09-29T07:02:06.320Z,320.60
2017-09-29T07:03:06.336Z,377.60
2017-09-29T07:04:06.355Z,350.20
2017-09-29T07:05:06.377Z,345.00
2017-09-29T07:06:06.399Z,353.50
2017-09-29T07:07:06.419Z,356.10
2017-09-29T07:08:06.441Z,325.70
2017-09-29T07:09:06.461Z,174.60
2017-09-29T07:10:06.480Z,136.40
2017-09-29T07:11:06.515Z,131.90
2017-09-29T07:12:06.524Z,131.40
2017-09-29T07:13:06.546Z,162.60
2017-09-29T07:14:06.577Z,289.80
2017-09-29T07:15:06.589Z,286.90
2017-09-29T07:16:06.613Z,339.10
2017-09-29T07:17:06.631Z,263.70
2017-09-29T07:18:06.655Z,257.30
2017-09-29T07:19:06.674Z,296.00
2017-09-29T07:20:06.696Z,210.40
2017-09-29T07:21:06.723Z,163.40
2017-09-29T07:22:06.742Z,104.80
2017-09-29T07:23:06.764Z,124.70
2017-09-29T07:24:06.784Z,83.60
2017-09-29T07:25:06.806Z,94.20
2017-09-29T07:26:06.827Z,98.50
2017-09-29T07:27:06.846Z,108.30
2017-09-29T07:28:06.868Z,98.00
2017-09-29T07:29:06.893Z,137.40
2017-09-29T07:30:06.912Z,111.10
2017-09-29T07:31:06.937Z,158.20
2017-09-29T07:32:06.955Z,99.00
2017-09-29T07:33:06.979Z,78.60
2017-09-29T07:34:07.005Z,91.10
2017-09-29T07:35:07.022Z,67.20
2017-09-29T07:36:07.043Z,94.00
2017-09-29T07:37:07.065Z,56.60
2017-09-29T07:38:07.089Z,55.20
2017-09-29T07:39:07.107Z,62.50
2017-09-29T07:40:07.131Z,64.40
2017-09-29T07:41:07.152Z,59.40
2017-09-29T07:42:07.177Z,47.60
2017-09-29T07:43:07.196Z,44.10
2017-09-29T07:44:07.224Z,41.60
2017-09-29T07:45:07.239Z,41.10
2017-09-29T07:46:07.265Z,42.70
2017-09-29T07:47:07.285Z,39.30
2017-09-29T07:48:07.313Z,37.90
2017-09-29T07:49:07.338Z,32.90
2017-09-29T07:50:07.353Z,38.00
2017-09-29T07:51:07.376Z,29.50
2017-09-29T07:52:07.400Z,32.90
2017-09-29T07:53:07.422Z,30.90
2017-09-29T07:54:07.444Z,29.90
2017-09-29T07:55:07.471Z,28.50
2017-09-29T07:56:07.498Z,27.70
2017-09-29T07:57:07.513Z,26.40
2017-09-29T07:58:07.537Z,25.80
2017-09-29T07:59:07.563Z,24.10
2017-09-29T08:00:07.584Z,23.80
2017-09-29T08:01:07.608Z,24.00
2017-09-29T08:02:07.643Z,22.90
2017-09-29T08:03:07.657Z,23.60
2017-09-29T08:04:07.681Z,22.90
2017-09-29T08:05:07.705Z,24.60
2017-09-29T08:06:07.731Z,22.80
2017-09-29T08:07:07.765Z,24.30
2017-09-29T08:08:07.781Z,23.10
2017-09-29T08:09:07.808Z,20.70
2017-09-29T08:10:07.828Z,23.00
2017-09-29T08:11:07.856Z,22.10
2017-09-29T08:12:07.878Z,22.20
2017-09-29T08:13:07.905Z,21.00
2017-09-29T08:14:07.932Z,23.10
2017-09-29T08:15:07.956Z,22.90
2017-09-29T08:16:07.982Z,26.10
2017-09-29T08:17:08.009Z,27.60
2017-09-29T08:18:08.044Z,27.30
2017-09-29T08:19:08.059Z,28.50
2017-09-29T08:20:08.082Z,28.30
2017-09-29T08:21:08.107Z,26.60
2017-09-29T08:22:08.133Z,30.10
2017-09-29T08:23:08.157Z,26.90
2017-09-29T08:24:08.184Z,30.50
2017-09-29T08:25:08.212Z,31.90
2017-09-29T08:26:08.235Z,29.70
2017-09-29T08:27:08.259Z,30.70
2017-09-29T08:28:08.281Z,29.60
2017-09-29T08:29:08.307Z,27.80
2017-09-29T08:30:08.333Z,28.80
2017-09-29T08:31:08.358Z,33.80
2017-09-29T08:32:08.383Z,30.60
2017-09-29T08:33:08.407Z,31.90
2017-09-29T08:34:08.430Z,32.90
2017-09-29T08:35:08.454Z,29.60
2017-09-29T08:36:08.480Z,31.60
2017-09-29T08:37:08.502Z,35.50
2017-09-29T08:38:08.526Z,32.00
2017-09-29T08:39:08.552Z,35.00
2017-09-29T08:40:08.574Z,31.30
2017-09-29T08:41:08.597Z,32.30
2017-09-29T08:42:08.623Z,32.30
2017-09-29T08:43:08.651Z,36.30
2017-09-29T08:44:08.672Z,33.10
2017-09-29T08:45:08.698Z,36.80
2017-09-29T08:46:08.720Z,32.20
2017-09-29T08:47:08.744Z,33.50
2017-09-29T08:48:08.765Z,34.80
2017-09-29T08:49:08.803Z,38.60
2017-09-29T08:50:08.812Z,33.40
2017-09-29T08:51:08.837Z,36.00
2017-09-29T08:52:08.863Z,35.50
2017-09-29T08:53:08.885Z,34.90
2017-09-29T08:54:08.911Z,36.90
2017-09-29T08:55:08.931Z,34.10
2017-09-29T08:56:08.954Z,38.00
2017-09-29T08:57:08.977Z,37.50
2017-09-29T08:58:08.999Z,37.60
2017-09-29T08:59:09.024Z,36.50
2017-09-29T09:00:09.044Z,37.90
2017-09-29T09:01:09.068Z,38.70
2017-09-29T09:02:09.093Z,35.80
2017-09-29T09:03:09.119Z,40.10
2017-09-29T09:04:09.136Z,38.50
2017-09-29T09:05:09.161Z,36.80
2017-09-29T09:06:09.182Z,38.50
2017-09-29T09:07:09.211Z,36.60
2017-09-29T09:08:09.228Z,39.20
2017-09-29T09:09:09.251Z,38.10
2017-09-29T09:10:09.271Z,36.10
2017-09-29T09:11:09.297Z,39.60
2017-09-29T09:12:09.319Z,38.90
2017-09-29T09:13:09.350Z,39.10
2017-09-29T09:14:09.365Z,35.60
2017-09-29T09:15:09.390Z,36.80
2017-09-29T09:16:09.411Z,43.10
2017-09-29T09:17:09.434Z,41.70
2017-09-29T09:18:09.460Z,38.60
2017-09-29T09:19:09.487Z,34.30
2017-09-29T09:20:09.505Z,38.20
2017-09-29T09:21:09.526Z,42.40
2017-09-29T09:22:09.549Z,39.10
2017-09-29T09:23:09.575Z,38.10
2017-09-29T09:24:09.596Z,42.80
2017-09-29T09:25:09.619Z,35.50
2017-09-29T09:26:09.641Z,39.40
2017-09-29T09:27:09.670Z,38.10
2017-09-29T09:28:09.688Z,39.70
2017-09-29T09:29:09.711Z,36.90
2017-09-29T09:30:09.735Z,39.00
2017-09-29T09:31:09.759Z,38.00
2017-09-29T09:32:09.781Z,37.60
2017-09-29T09:33:09.804Z,35.00
2017-09-29T09:34:09.833Z,33.30
2017-09-29T09:35:09.853Z,36.80
2017-09-29T09:36:09.878Z,37.80
2017-09-29T09:37:09.896Z,34.20
2017-09-29T09:38:09.921Z,38.60
2017-09-29T09:39:09.945Z,37.40
2017-09-29T09:40:09.967Z,39.50
2017-09-29T09:41:09.993Z,36.80
2017-09-29T09:42:10.015Z,38.40
2017-09-29T09:43:10.048Z,34.40
2017-09-29T09:44:10.061Z,37.10
2017-09-29T09:45:10.083Z,36.00
2017-09-29T09:46:10.113Z,35.10
2017-09-29T09:47:10.131Z,34.30
2017-09-29T09:48:10.169Z,36.30
2017-09-29T09:49:10.182Z,35.00
2017-09-29T09:50:10.204Z,37.90
2017-09-29T09:51:10.224Z,37.00
2017-09-29T09:52:10.245Z,36.00
2017-09-29T09:53:10.273Z,36.60
2017-09-29T09:54:10.296Z,35.30
2017-09-29T09:55:10.318Z,38.20
2017-09-29T09:56:10.344Z,38.30
2017-09-29T09:57:10.368Z,34.10
2017-09-29T09:58:10.389Z,35.70
2017-09-29T09:59:10.413Z,38.20
2017-09-29T10:00:10.438Z,39.10
2017-09-29T10:01:10.461Z,35.40
2017-09-29T10:02:10.483Z,33.20
2017-09-29T10:03:10.505Z,34.20
2017-09-29T10:04:10.529Z,34.90
2017-09-29T10:05:10.554Z,36.00
2017-09-29T10:06:10.576Z,33.10
2017-09-29T10:07:10.603Z,32.00
2017-09-29T10:08:10.629Z,32.50
2017-09-29T10:09:10.647Z,35.50
2017-09-29T10:10:10.672Z,36.60
2017-09-29T10:11:10.696Z,35.20
2017-09-29T10:12:10.723Z,35.50
2017-09-29T10:13:10.742Z,37.20
2017-09-29T10:14:10.765Z,34.80
2017-09-29T10:15:10.787Z,32.40
2017-09-29T10:16:10.815Z,36.50
2017-09-29T10:17:10.834Z,38.70
2017-09-29T10:18:10.876Z,33.10
2017-09-29T10:19:10.884Z,34.20
2017-09-29T10:20:10.907Z,35.80
2017-09-29T10:21:10.932Z,35.20
2017-09-29T10:22:10.959Z,35.80
2017-09-29T10:23:10.977Z,33.00
2017-09-29T10:24:11.002Z,35.90
2017-09-29T10:25:11.025Z,38.20
2017-09-29T10:26:11.048Z,35.00
2017-09-29T10:27:11.073Z,36.30
2017-09-29T10:28:11.096Z,33.10
2017-09-29T10:29:11.120Z,31.50
2017-09-29T10:30:11.158Z,38.50
2017-09-29T10:31:11.169Z,34.60
2017-09-29T10:32:11.190Z,35.40
2017-09-29T10:33:11.216Z,40.30
2017-09-29T10:34:11.240Z,37.10
2017-09-29T10:35:11.263Z,32.50
2017-09-29T10:36:11.285Z,36.20
2017-09-29T10:37:11.311Z,37.20
2017-09-29T10:38:11.333Z,35.80
2017-09-29T10:39:11.363Z,32.10
2017-09-29T10:40:11.383Z,34.20
2017-09-29T10:41:11.408Z,33.10
2017-09-29T10:42:11.431Z,33.00
2017-09-29T10:43:11.519Z,33.40
2017-09-29T10:44:11.477Z,33.20
2017-09-29T10:45:11.502Z,37.60
2017-09-29T10:46:11.525Z,33.80
2017-09-29T10:47:11.552Z,30.70
2017-09-29T10:48:11.575Z,31.70
2017-09-29T10:49:11.597Z,38.00
2017-09-29T10:50:11.625Z,35.10
2017-09-29T10:51:11.647Z,37.20
2017-09-29T10:52:11.668Z,34.10
2017-09-29T10:53:11.694Z,37.10
2017-09-29T10:54:11.719Z,37.30
2017-09-29T10:55:11.744Z,34.50
2017-09-29T10:56:11.767Z,35.30
2017-09-29T10:57:11.792Z,30.40
2017-09-29T10:58:11.814Z,33.80
2017-09-29T10:59:11.839Z,32.80
2017-09-29T11:00:11.862Z,31.10
2017-09-29T11:01:11.886Z,32.50
2017-09-29T11:02:11.914Z,30.90
2017-09-29T11:03:11.936Z,31.20
2017-09-29T11:04:11.961Z,30.20
2017-09-29T11:05:11.990Z,32.70
2017-09-29T11:06:12.009Z,30.40
2017-09-29T11:07:12.033Z,28.50
2017-09-29T11:08:12.055Z,33.50
2017-09-29T11:09:12.079Z,32.50
2017-09-29T11:10:12.105Z,27.20
2017-09-29T11:11:12.131Z,32.50
2017-09-29T11:12:12.154Z,28.50
2017-09-29T11:13:12.178Z,28.90
2017-09-29T11:14:12.202Z,25.80
2017-09-29T11:15:12.234Z,30.00
2017-09-29T11:16:12.249Z,29.60
2017-09-29T11:17:12.273Z,31.90
2017-09-29T11:18:12.296Z,29.30
2017-09-29T11:19:12.324Z,24.90
2017-09-29T11:20:12.350Z,28.30
2017-09-29T11:21:12.372Z,25.30
2017-09-29T11:22:12.395Z,24.30
2017-09-29T11:23:12.431Z,26.20
2017-09-29T11:24:12.452Z,25.50
2017-09-29T11:25:12.467Z,27.10
2017-09-29T11:26:12.492Z,29.90
2017-09-29T11:27:12.516Z,25.60
2017-09-29T11:28:12.539Z,28.50
2017-09-29T11:29:12.566Z,30.10
2017-09-29T11:30:12.587Z,27.40
2017-09-29T11:31:12.613Z,28.50
2017-09-29T11:32:12.639Z,26.60
2017-09-29T11:33:12.664Z,25.00
2017-09-29T11:34:12.687Z,26.10
2017-09-29T11:35:12.711Z,26.00
2017-09-29T11:36:12.734Z,24.90
2017-09-29T11:37:12.760Z,28.10
2017-09-29T11:38:12.784Z,26.90
2017-09-29T11:39:12.809Z,27.70
2017-09-29T11:40:12.830Z,27.00
2017-09-29T11:41:12.853Z,28.20
2017-09-29T11:42:12.881Z,24.40
2017-09-29T11:43:12.907Z,27.30
2017-09-29T11:44:12.928Z,28.90
2017-09-29T11:45:12.952Z,25.90
2017-09-29T11:46:12.978Z,26.00
2017-09-29T11:47:13.002Z,27.50
2017-09-29T11:48:13.024Z,26.20
2017-09-29T11:49:13.053Z,26.90
2017-09-29T11:50:13.072Z,27.60
2017-09-29T11:51:13.098Z,25.00
2017-09-29T11:52:13.121Z,25.00
2017-09-29T11:53:13.145Z,26.40
2017-09-29T11:54:13.170Z,26.50
2017-09-29T11:55:13.193Z,27.30
2017-09-29T11:56:13.219Z,26.10
2017-09-29T11:57:13.241Z,21.50
2017-09-29T11:58:13.264Z,24.60
2017-09-29T11:59:13.290Z,22.80
2017-09-29T12:00:13.313Z,26.20
2017-09-29T12:01:13.334Z,26.20
2017-09-29T12:02:13.359Z,25.00
2017-09-29T12:03:13.384Z,27.00
2017-09-29T12:04:13.406Z,20.80
2017-09-29T12:05:13.429Z,22.90
2017-09-29T12:06:13.455Z,25.70
2017-09-29T12:07:13.478Z,24.70
2017-09-29T12:08:13.506Z,25.20
2017-09-29T12:09:13.523Z,24.30
2017-09-29T12:10:13.548Z,22.90
2017-09-29T12:11:13.573Z,25.30
2017-09-29T12:12:13.594Z,23.40
2017-09-29T12:13:13.617Z,23.90
2017-09-29T12:14:13.643Z,23.60
2017-09-29T12:15:13.668Z,29.20
2017-09-29T12:16:13.689Z,20.30
2017-09-29T12:17:13.713Z,22.30
2017-09-29T12:18:13.734Z,21.40
2017-09-29T12:19:13.760Z,24.80
2017-09-29T12:20:13.785Z,18.90
2017-09-29T12:21:13.806Z,19.20
2017-09-29T12:22:13.831Z,22.70
2017-09-29T12:23:13.854Z,21.30
2017-09-29T12:24:13.877Z,18.70
2017-09-29T12:25:13.904Z,18.30
2017-09-29T12:26:13.931Z,17.20
2017-09-29T12:27:13.947Z,18.20
2017-09-29T12:28:13.974Z,17.50
2017-09-29T12:29:14.004Z,17.30
2017-09-29T12:30:14.023Z,17.50
2017-09-29T12:31:14.045Z,20.60
2017-09-29T12:32:14.066Z,15.70
2017-09-29T12:33:14.089Z,16.10
2017-09-29T12:34:14.115Z,16.60
2017-09-29T12:35:14.137Z,18.10
2017-09-29T12:36:14.164Z,18.00
2017-09-29T12:37:14.189Z,17.40
2017-09-29T12:38:14.213Z,16.80
2017-09-29T12:39:14.238Z,16.80
2017-09-29T12:40:14.262Z,13.30
2017-09-29T12:41:14.284Z,13.30
2017-09-29T12:42:14.308Z,17.20
2017-09-29T12:43:14.336Z,17.70
2017-09-29T12:44:14.357Z,15.50
2017-09-29T12:46:14.410Z,16.80
2017-09-29T12:47:14.433Z,14.80
2017-09-29T12:48:14.455Z,15.90
2017-09-29T12:49:14.481Z,15.50